sensor_id;sensor_type;location;lat;lon;timestamp;temperature;humidity
2647;DHT22;1333;50.958;6.770;2022-08-03T00:01:35;20.80;99.90
2647;DHT22;1333;50.958;6.770;2022-08-03T00:04:02;20.80;99.90
2647;DHT22;1333;50.958;6.770;2022-08-03T00:06:28;20.80;99.90
2647;DHT22;1333;50.958;6.770;2022-08-03T00:08:53;20.80;99.90
2647;DHT22;1333;50.958;6.770;2022-08-03T00:11:19;20.80;99.90
2647;DHT22;1333;50.958;6.770;2022-08-03T00:13:45;20.80;99.90
2647;DHT22;1333;50.958;6.770;2022-08-03T00:16:10;20.80;99.90
2647;DHT22;1333;50.958;6.770;2022-08-03T00:18:36;20.70;99.90
2647;DHT22;1333;50.958;6.770;2022-08-03T00:21:03;20.60;99.90
2647;DHT22;1333;50.958;6.770;2022-08-03T00:23:28;20.60;99.90
2647;DHT22;1333;50.958;6.770;2022-08-03T00:25:54;20.60;99.90
2647;DHT22;1333;50.958;6.770;2022-08-03T00:28:20;20.50;99.90
2647;DHT22;1333;50.958;6.770;2022-08-03T00:30:45;20.60;99.90
2647;DHT22;1333;50.958;6.770;2022-08-03T00:33:11;20.60;99.90
2647;DHT22;1333;50.958;6.770;2022-08-03T00:35:36;20.70;99.90
2647;DHT22;1333;50.958;6.770;2022-08-03T00:38:02;20.70;99.90
2647;DHT22;1333;50.958;6.770;2022-08-03T00:40:28;20.60;99.90
2647;DHT22;1333;50.958;6.770;2022-08-03T00:42:55;20.60;99.90
2647;DHT22;1333;50.958;6.770;2022-08-03T00:45:23;20.60;99.90
2647;DHT22;1333;50.958;6.770;2022-08-03T00:47:49;20.60;99.90
2647;DHT22;1333;50.958;6.770;2022-08-03T00:50:15;20.60;99.90
2647;DHT22;1333;50.958;6.770;2022-08-03T00:52:42;20.60;99.90
2647;DHT22;1333;50.958;6.770;2022-08-03T00:55:09;20.50;99.90
2647;DHT22;1333;50.958;6.770;2022-08-03T00:57:35;20.50;99.90
2647;DHT22;1333;50.958;6.770;2022-08-03T01:00:01;20.40;99.90
2647;DHT22;1333;50.958;6.770;2022-08-03T01:02:27;20.40;99.90
2647;DHT22;1333;50.958;6.770;2022-08-03T01:04:54;20.40;99.90
2647;DHT22;1333;50.958;6.770;2022-08-03T01:07:46;20.40;99.90
2647;DHT22;1333;50.958;6.770;2022-08-03T01:13:06;20.30;99.90
2647;DHT22;1333;50.958;6.770;2022-08-03T01:15:42;20.30;99.90
2647;DHT22;1333;50.958;6.770;2022-08-03T01:18:24;20.30;99.90
2647;DHT22;1333;50.958;6.770;2022-08-03T01:20:55;20.20;99.90
2647;DHT22;1333;50.958;6.770;2022-08-03T01:26:35;20.10;99.90
2647;DHT22;1333;50.958;6.770;2022-08-03T01:32:02;20.10;99.90
2647;DHT22;1333;50.958;6.770;2022-08-03T01:34:31;20.10;99.90
2647;DHT22;1333;50.958;6.770;2022-08-03T01:37:00;20.10;99.90
2647;DHT22;1333;50.958;6.770;2022-08-03T01:39:28;20.10;99.90
2647;DHT22;1333;50.958;6.770;2022-08-03T01:41:58;20.10;99.90
2647;DHT22;1333;50.958;6.770;2022-08-03T01:44:27;20.00;99.90
2647;DHT22;1333;50.958;6.770;2022-08-03T01:46:55;20.10;99.90
2647;DHT22;1333;50.958;6.770;2022-08-03T01:49:22;20.00;99.90
2647;DHT22;1333;50.958;6.770;2022-08-03T01:51:49;20.00;99.90
2647;DHT22;1333;50.958;6.770;2022-08-03T01:54:16;20.10;99.90
2647;DHT22;1333;50.958;6.770;2022-08-03T01:56:43;20.10;99.90
2647;DHT22;1333;50.958;6.770;2022-08-03T01:59:11;20.10;99.90
2647;DHT22;1333;50.958;6.770;2022-08-03T02:01:37;20.10;99.90
2647;DHT22;1333;50.958;6.770;2022-08-03T02:04:05;20.10;99.90
2647;DHT22;1333;50.958;6.770;2022-08-03T02:06:33;20.00;99.90
2647;DHT22;1333;50.958;6.770;2022-08-03T02:08:59;20.00;99.90
2647;DHT22;1333;50.958;6.770;2022-08-03T02:11:27;20.00;99.90
2647;DHT22;1333;50.958;6.770;2022-08-03T02:13:56;20.00;99.90
2647;DHT22;1333;50.958;6.770;2022-08-03T02:16:22;19.90;99.90
2647;DHT22;1333;50.958;6.770;2022-08-03T02:18:49;19.90;99.90
2647;DHT22;1333;50.958;6.770;2022-08-03T02:21:16;19.90;99.90
2647;DHT22;1333;50.958;6.770;2022-08-03T02:23:42;19.80;99.90
2647;DHT22;1333;50.958;6.770;2022-08-03T02:26:11;19.80;99.90
2647;DHT22;1333;50.958;6.770;2022-08-03T02:28:41;19.80;99.90
2647;DHT22;1333;50.958;6.770;2022-08-03T02:31:13;19.80;99.90
2647;DHT22;1333;50.958;6.770;2022-08-03T02:33:47;19.80;99.90
2647;DHT22;1333;50.958;6.770;2022-08-03T02:36:13;19.80;99.90
2647;DHT22;1333;50.958;6.770;2022-08-03T02:38:43;19.80;99.90
2647;DHT22;1333;50.958;6.770;2022-08-03T02:41:15;19.80;99.90
2647;DHT22;1333;50.958;6.770;2022-08-03T02:43:44;19.70;99.90
2647;DHT22;1333;50.958;6.770;2022-08-03T02:46:12;19.70;99.90
2647;DHT22;1333;50.958;6.770;2022-08-03T02:48:40;19.70;99.90
2647;DHT22;1333;50.958;6.770;2022-08-03T02:51:06;19.70;99.90
2647;DHT22;1333;50.958;6.770;2022-08-03T02:53:32;19.70;99.90
2647;DHT22;1333;50.958;6.770;2022-08-03T02:55:59;19.70;99.90
2647;DHT22;1333;50.958;6.770;2022-08-03T02:58:26;19.70;99.90
2647;DHT22;1333;50.958;6.770;2022-08-03T03:00:54;19.70;99.90
2647;DHT22;1333;50.958;6.770;2022-08-03T03:03:21;19.70;99.90
2647;DHT22;1333;50.958;6.770;2022-08-03T03:05:48;19.60;99.90
2647;DHT22;1333;50.958;6.770;2022-08-03T03:08:17;19.60;99.90
2647;DHT22;1333;50.958;6.770;2022-08-03T03:10:43;19.60;99.90
2647;DHT22;1333;50.958;6.770;2022-08-03T03:13:09;19.50;99.90
2647;DHT22;1333;50.958;6.770;2022-08-03T03:15:36;19.50;99.90
2647;DHT22;1333;50.958;6.770;2022-08-03T03:18:04;19.40;99.90
2647;DHT22;1333;50.958;6.770;2022-08-03T03:20:31;19.40;99.90
2647;DHT22;1333;50.958;6.770;2022-08-03T03:23:00;19.40;99.90
2647;DHT22;1333;50.958;6.770;2022-08-03T03:25:30;19.40;99.90
2647;DHT22;1333;50.958;6.770;2022-08-03T03:27:57;19.40;99.90
2647;DHT22;1333;50.958;6.770;2022-08-03T03:30:23;19.30;99.90
2647;DHT22;1333;50.958;6.770;2022-08-03T03:32:49;19.40;99.90
2647;DHT22;1333;50.958;6.770;2022-08-03T03:35:15;19.40;99.90
2647;DHT22;1333;50.958;6.770;2022-08-03T03:37:41;19.40;99.90
2647;DHT22;1333;50.958;6.770;2022-08-03T03:40:07;19.30;99.90
2647;DHT22;1333;50.958;6.770;2022-08-03T03:42:33;19.30;99.90
2647;DHT22;1333;50.958;6.770;2022-08-03T03:45:03;19.20;99.90
2647;DHT22;1333;50.958;6.770;2022-08-03T03:47:29;19.20;99.90
2647;DHT22;1333;50.958;6.770;2022-08-03T03:49:56;19.10;99.90
2647;DHT22;1333;50.958;6.770;2022-08-03T03:52:21;19.10;99.90
2647;DHT22;1333;50.958;6.770;2022-08-03T03:54:47;19.10;99.90
2647;DHT22;1333;50.958;6.770;2022-08-03T03:57:12;19.10;99.90
2647;DHT22;1333;50.958;6.770;2022-08-03T03:59:39;19.10;99.90
2647;DHT22;1333;50.958;6.770;2022-08-03T04:02:06;19.10;99.90
2647;DHT22;1333;50.958;6.770;2022-08-03T04:04:33;19.10;99.90
2647;DHT22;1333;50.958;6.770;2022-08-03T04:07:18;19.10;99.90
2647;DHT22;1333;50.958;6.770;2022-08-03T04:10:08;19.10;99.90
2647;DHT22;1333;50.958;6.770;2022-08-03T04:12:55;19.10;99.90
2647;DHT22;1333;50.958;6.770;2022-08-03T04:15:22;19.20;99.90
2647;DHT22;1333;50.958;6.770;2022-08-03T04:17:49;19.20;99.90
2647;DHT22;1333;50.958;6.770;2022-08-03T04:20:18;19.20;99.90
2647;DHT22;1333;50.958;6.770;2022-08-03T04:22:45;19.10;99.90
2647;DHT22;1333;50.958;6.770;2022-08-03T04:25:15;19.10;99.90
2647;DHT22;1333;50.958;6.770;2022-08-03T04:27:45;19.10;99.90
2647;DHT22;1333;50.958;6.770;2022-08-03T04:30:12;19.10;99.90
2647;DHT22;1333;50.958;6.770;2022-08-03T04:32:39;19.10;99.90
2647;DHT22;1333;50.958;6.770;2022-08-03T04:35:06;19.00;99.90
2647;DHT22;1333;50.958;6.770;2022-08-03T04:37:38;19.00;99.90
2647;DHT22;1333;50.958;6.770;2022-08-03T04:40:10;19.10;99.90
2647;DHT22;1333;50.958;6.770;2022-08-03T04:42:37;19.10;99.90
2647;DHT22;1333;50.958;6.770;2022-08-03T04:45:05;19.10;99.90
2647;DHT22;1333;50.958;6.770;2022-08-03T04:47:32;19.10;99.90
2647;DHT22;1333;50.958;6.770;2022-08-03T04:50:00;19.20;99.90
2647;DHT22;1333;50.958;6.770;2022-08-03T04:52:26;19.20;99.90
2647;DHT22;1333;50.958;6.770;2022-08-03T04:54:52;19.20;99.90
2647;DHT22;1333;50.958;6.770;2022-08-03T04:57:17;19.30;99.90
2647;DHT22;1333;50.958;6.770;2022-08-03T04:59:44;19.30;99.90
2647;DHT22;1333;50.958;6.770;2022-08-03T05:02:09;19.30;99.90
2647;DHT22;1333;50.958;6.770;2022-08-03T05:04:35;19.40;99.90
2647;DHT22;1333;50.958;6.770;2022-08-03T05:07:02;19.40;99.90
2647;DHT22;1333;50.958;6.770;2022-08-03T05:09:28;19.50;99.90
2647;DHT22;1333;50.958;6.770;2022-08-03T05:11:54;19.50;99.90
2647;DHT22;1333;50.958;6.770;2022-08-03T05:14:19;19.60;99.90
2647;DHT22;1333;50.958;6.770;2022-08-03T05:16:45;19.70;99.90
2647;DHT22;1333;50.958;6.770;2022-08-03T05:19:11;19.70;99.90
2647;DHT22;1333;50.958;6.770;2022-08-03T05:21:36;19.80;99.90
2647;DHT22;1333;50.958;6.770;2022-08-03T05:24:02;19.80;99.90
2647;DHT22;1333;50.958;6.770;2022-08-03T05:26:28;19.80;99.90
2647;DHT22;1333;50.958;6.770;2022-08-03T05:28:53;19.90;99.90
2647;DHT22;1333;50.958;6.770;2022-08-03T05:31:19;20.00;99.90
2647;DHT22;1333;50.958;6.770;2022-08-03T05:33:44;20.10;99.90
2647;DHT22;1333;50.958;6.770;2022-08-03T05:36:12;20.10;99.90
2647;DHT22;1333;50.958;6.770;2022-08-03T05:38:37;20.30;99.90
2647;DHT22;1333;50.958;6.770;2022-08-03T05:41:03;20.50;99.90
2647;DHT22;1333;50.958;6.770;2022-08-03T05:43:28;20.70;99.90
2647;DHT22;1333;50.958;6.770;2022-08-03T05:45:56;21.00;99.90
2647;DHT22;1333;50.958;6.770;2022-08-03T05:48:23;21.20;99.90
2647;DHT22;1333;50.958;6.770;2022-08-03T05:50:48;21.50;99.90
2647;DHT22;1333;50.958;6.770;2022-08-03T05:53:14;21.80;99.90
2647;DHT22;1333;50.958;6.770;2022-08-03T05:55:39;22.10;99.90
2647;DHT22;1333;50.958;6.770;2022-08-03T05:58:05;22.40;99.90
2647;DHT22;1333;50.958;6.770;2022-08-03T06:00:30;22.80;99.90
2647;DHT22;1333;50.958;6.770;2022-08-03T06:02:56;23.20;99.90
2647;DHT22;1333;50.958;6.770;2022-08-03T06:05:21;23.80;99.90
2647;DHT22;1333;50.958;6.770;2022-08-03T06:07:47;24.30;99.90
2647;DHT22;1333;50.958;6.770;2022-08-03T06:10:12;24.90;99.90
2647;DHT22;1333;50.958;6.770;2022-08-03T06:12:38;25.50;99.90
2647;DHT22;1333;50.958;6.770;2022-08-03T06:15:05;26.00;99.90
2647;DHT22;1333;50.958;6.770;2022-08-03T06:17:31;26.60;99.90
2647;DHT22;1333;50.958;6.770;2022-08-03T06:19:57;27.10;99.90
2647;DHT22;1333;50.958;6.770;2022-08-03T06:22:22;27.60;99.90
2647;DHT22;1333;50.958;6.770;2022-08-03T06:24:48;27.90;99.90
2647;DHT22;1333;50.958;6.770;2022-08-03T06:27:13;28.20;99.90
2647;DHT22;1333;50.958;6.770;2022-08-03T06:29:39;28.70;99.90
2647;DHT22;1333;50.958;6.770;2022-08-03T06:32:05;29.00;99.90
2647;DHT22;1333;50.958;6.770;2022-08-03T06:34:30;29.40;99.90
2647;DHT22;1333;50.958;6.770;2022-08-03T06:36:56;30.00;99.90
2647;DHT22;1333;50.958;6.770;2022-08-03T06:39:22;30.30;97.30
2647;DHT22;1333;50.958;6.770;2022-08-03T06:41:47;30.70;95.10
2647;DHT22;1333;50.958;6.770;2022-08-03T06:44:13;31.10;93.30
2647;DHT22;1333;50.958;6.770;2022-08-03T06:46:38;31.50;90.80
2647;DHT22;1333;50.958;6.770;2022-08-03T06:49:05;32.20;84.20
2647;DHT22;1333;50.958;6.770;2022-08-03T06:51:31;32.60;80.80
2647;DHT22;1333;50.958;6.770;2022-08-03T06:53:57;32.90;80.00
2647;DHT22;1333;50.958;6.770;2022-08-03T06:56:22;33.30;75.00
2647;DHT22;1333;50.958;6.770;2022-08-03T06:58:48;33.90;72.30
2647;DHT22;1333;50.958;6.770;2022-08-03T07:01:14;34.20;72.00
2647;DHT22;1333;50.958;6.770;2022-08-03T07:03:39;35.00;65.50
2647;DHT22;1333;50.958;6.770;2022-08-03T07:06:05;35.50;61.20
2647;DHT22;1333;50.958;6.770;2022-08-03T07:08:31;36.00;60.00
2647;DHT22;1333;50.958;6.770;2022-08-03T07:10:56;36.40;61.70
2647;DHT22;1333;50.958;6.770;2022-08-03T07:13:22;37.00;55.30
2647;DHT22;1333;50.958;6.770;2022-08-03T07:15:47;37.70;52.80
2647;DHT22;1333;50.958;6.770;2022-08-03T07:18:13;37.80;51.70
2647;DHT22;1333;50.958;6.770;2022-08-03T07:20:38;38.20;51.90
2647;DHT22;1333;50.958;6.770;2022-08-03T07:23:05;38.70;50.40
2647;DHT22;1333;50.958;6.770;2022-08-03T07:25:30;39.10;47.80
2647;DHT22;1333;50.958;6.770;2022-08-03T07:27:56;39.50;47.60
2647;DHT22;1333;50.958;6.770;2022-08-03T07:30:21;40.00;47.20
2647;DHT22;1333;50.958;6.770;2022-08-03T07:32:47;40.40;45.10
2647;DHT22;1333;50.958;6.770;2022-08-03T07:35:13;41.10;42.80
2647;DHT22;1333;50.958;6.770;2022-08-03T07:37:38;41.40;43.90
2647;DHT22;1333;50.958;6.770;2022-08-03T07:40:04;41.50;42.70
2647;DHT22;1333;50.958;6.770;2022-08-03T07:42:30;42.20;41.80
2647;DHT22;1333;50.958;6.770;2022-08-03T07:44:57;42.60;41.10
2647;DHT22;1333;50.958;6.770;2022-08-03T07:47:26;43.10;40.10
2647;DHT22;1333;50.958;6.770;2022-08-03T07:49:52;43.50;40.00
2647;DHT22;1333;50.958;6.770;2022-08-03T07:52:18;44.00;39.50
2647;DHT22;1333;50.958;6.770;2022-08-03T07:55:03;44.80;38.80
2647;DHT22;1333;50.958;6.770;2022-08-03T07:57:30;45.00;37.30
2647;DHT22;1333;50.958;6.770;2022-08-03T07:59:56;45.30;35.70
2647;DHT22;1333;50.958;6.770;2022-08-03T08:02:21;45.40;35.40
2647;DHT22;1333;50.958;6.770;2022-08-03T08:04:47;45.70;35.10
2647;DHT22;1333;50.958;6.770;2022-08-03T08:07:12;46.00;33.90
2647;DHT22;1333;50.958;6.770;2022-08-03T08:09:38;46.00;33.80
2647;DHT22;1333;50.958;6.770;2022-08-03T08:12:04;46.30;33.00
2647;DHT22;1333;50.958;6.770;2022-08-03T08:14:29;46.60;33.90
2647;DHT22;1333;50.958;6.770;2022-08-03T08:16:55;46.80;32.10
2647;DHT22;1333;50.958;6.770;2022-08-03T08:19:21;47.00;32.90
2647;DHT22;1333;50.958;6.770;2022-08-03T08:21:46;47.60;33.80
2647;DHT22;1333;50.958;6.770;2022-08-03T08:24:12;47.90;32.80
2647;DHT22;1333;50.958;6.770;2022-08-03T08:26:37;48.20;32.30
2647;DHT22;1333;50.958;6.770;2022-08-03T08:29:03;48.70;31.00
2647;DHT22;1333;50.958;6.770;2022-08-03T08:31:29;49.10;31.50
2647;DHT22;1333;50.958;6.770;2022-08-03T08:33:54;49.40;30.10
2647;DHT22;1333;50.958;6.770;2022-08-03T08:36:20;49.80;30.60
2647;DHT22;1333;50.958;6.770;2022-08-03T08:38:46;50.10;30.00
2647;DHT22;1333;50.958;6.770;2022-08-03T08:41:13;50.80;29.20
2647;DHT22;1333;50.958;6.770;2022-08-03T08:43:39;51.30;28.20
2647;DHT22;1333;50.958;6.770;2022-08-03T08:46:06;51.10;27.00
2647;DHT22;1333;50.958;6.770;2022-08-03T08:48:32;50.60;26.70
2647;DHT22;1333;50.958;6.770;2022-08-03T08:51:01;49.40;27.20
2647;DHT22;1333;50.958;6.770;2022-08-03T08:53:28;49.30;27.40
2647;DHT22;1333;50.958;6.770;2022-08-03T08:55:58;48.90;27.70
2647;DHT22;1333;50.958;6.770;2022-08-03T08:58:25;48.80;28.40
2647;DHT22;1333;50.958;6.770;2022-08-03T09:00:52;48.90;27.50
2647;DHT22;1333;50.958;6.770;2022-08-03T09:03:18;48.80;28.30
2647;DHT22;1333;50.958;6.770;2022-08-03T09:05:44;49.10;27.60
2647;DHT22;1333;50.958;6.770;2022-08-03T09:08:09;48.80;28.30
2647;DHT22;1333;50.958;6.770;2022-08-03T09:10:35;49.10;29.20
2647;DHT22;1333;50.958;6.770;2022-08-03T09:13:01;50.00;28.30
2647;DHT22;1333;50.958;6.770;2022-08-03T09:15:31;50.80;28.40
2647;DHT22;1333;50.958;6.770;2022-08-03T09:18:02;51.00;27.50
2647;DHT22;1333;50.958;6.770;2022-08-03T09:20:31;51.30;27.20
2647;DHT22;1333;50.958;6.770;2022-08-03T09:23:01;52.00;26.10
2647;DHT22;1333;50.958;6.770;2022-08-03T09:25:28;50.90;26.60
2647;DHT22;1333;50.958;6.770;2022-08-03T09:28:06;50.90;26.80
2647;DHT22;1333;50.958;6.770;2022-08-03T09:30:33;50.50;26.40
2647;DHT22;1333;50.958;6.770;2022-08-03T09:33:03;50.40;28.00
2647;DHT22;1333;50.958;6.770;2022-08-03T09:35:29;51.00;27.20
2647;DHT22;1333;50.958;6.770;2022-08-03T09:38:08;51.60;26.10
2647;DHT22;1333;50.958;6.770;2022-08-03T09:40:34;51.80;26.60
2647;DHT22;1333;50.958;6.770;2022-08-03T09:43:00;51.70;25.70
2647;DHT22;1333;50.958;6.770;2022-08-03T09:45:26;51.00;26.50
2647;DHT22;1333;50.958;6.770;2022-08-03T09:47:52;51.40;26.90
2647;DHT22;1333;50.958;6.770;2022-08-03T09:50:18;51.90;26.50
2647;DHT22;1333;50.958;6.770;2022-08-03T09:52:43;52.20;25.90
2647;DHT22;1333;50.958;6.770;2022-08-03T09:55:13;53.00;26.90
2647;DHT22;1333;50.958;6.770;2022-08-03T09:57:39;53.40;26.20
2647;DHT22;1333;50.958;6.770;2022-08-03T10:00:13;53.60;25.40
2647;DHT22;1333;50.958;6.770;2022-08-03T10:02:41;53.90;25.90
2647;DHT22;1333;50.958;6.770;2022-08-03T10:05:09;54.30;25.60
2647;DHT22;1333;50.958;6.770;2022-08-03T10:07:48;54.90;24.20
2647;DHT22;1333;50.958;6.770;2022-08-03T10:10:16;54.60;24.60
2647;DHT22;1333;50.958;6.770;2022-08-03T10:12:42;54.30;24.90
2647;DHT22;1333;50.958;6.770;2022-08-03T10:15:09;54.50;24.40
2647;DHT22;1333;50.958;6.770;2022-08-03T10:17:36;54.40;25.00
2647;DHT22;1333;50.958;6.770;2022-08-03T10:20:04;54.40;25.00
2647;DHT22;1333;50.958;6.770;2022-08-03T10:22:35;54.70;25.20
2647;DHT22;1333;50.958;6.770;2022-08-03T10:25:08;55.20;24.30
2647;DHT22;1333;50.958;6.770;2022-08-03T10:27:37;54.70;23.80
2647;DHT22;1333;50.958;6.770;2022-08-03T10:30:09;54.00;23.80
2647;DHT22;1333;50.958;6.770;2022-08-03T10:32:43;53.30;24.00
2647;DHT22;1333;50.958;6.770;2022-08-03T10:35:14;53.10;24.50
2647;DHT22;1333;50.958;6.770;2022-08-03T10:37:42;53.00;25.10
2647;DHT22;1333;50.958;6.770;2022-08-03T10:40:12;52.70;24.20
2647;DHT22;1333;50.958;6.770;2022-08-03T10:42:40;52.30;24.30
2647;DHT22;1333;50.958;6.770;2022-08-03T10:45:16;52.30;25.30
2647;DHT22;1333;50.958;6.770;2022-08-03T10:47:43;52.70;25.30
2647;DHT22;1333;50.958;6.770;2022-08-03T10:50:09;53.40;25.50
2647;DHT22;1333;50.958;6.770;2022-08-03T10:52:35;54.10;25.60
2647;DHT22;1333;50.958;6.770;2022-08-03T10:55:00;54.80;25.30
2647;DHT22;1333;50.958;6.770;2022-08-03T11:00:17;54.90;24.20
2647;DHT22;1333;50.958;6.770;2022-08-03T11:03:03;54.80;23.50
2647;DHT22;1333;50.958;6.770;2022-08-03T11:05:35;54.30;24.20
2647;DHT22;1333;50.958;6.770;2022-08-03T11:08:25;53.90;23.70
2647;DHT22;1333;50.958;6.770;2022-08-03T11:10:53;53.50;23.30
2647;DHT22;1333;50.958;6.770;2022-08-03T11:13:21;53.50;24.50
2647;DHT22;1333;50.958;6.770;2022-08-03T11:15:50;54.00;24.60
2647;DHT22;1333;50.958;6.770;2022-08-03T11:18:17;54.90;24.50
2647;DHT22;1333;50.958;6.770;2022-08-03T11:23:17;55.70;23.70
2647;DHT22;1333;50.958;6.770;2022-08-03T11:26:14;56.20;24.20
2647;DHT22;1333;50.958;6.770;2022-08-03T11:28:42;56.80;22.90
2647;DHT22;1333;50.958;6.770;2022-08-03T11:34:07;56.50;22.80
2647;DHT22;1333;50.958;6.770;2022-08-03T11:39:47;53.70;22.40
2647;DHT22;1333;50.958;6.770;2022-08-03T11:44:49;49.60;24.30
2647;DHT22;1333;50.958;6.770;2022-08-03T11:47:16;47.80;26.50
2647;DHT22;1333;50.958;6.770;2022-08-03T11:49:47;46.70;26.20
2647;DHT22;1333;50.958;6.770;2022-08-03T11:52:13;45.80;26.80
2647;DHT22;1333;50.958;6.770;2022-08-03T11:54:40;44.60;27.10
2647;DHT22;1333;50.958;6.770;2022-08-03T11:57:05;43.90;27.70
2647;DHT22;1333;50.958;6.770;2022-08-03T11:59:32;42.80;28.70
2647;DHT22;1333;50.958;6.770;2022-08-03T12:02:11;42.90;30.40
2647;DHT22;1333;50.958;6.770;2022-08-03T12:07:19;45.40;30.00
2647;DHT22;1333;50.958;6.770;2022-08-03T12:10:11;46.70;28.80
2647;DHT22;1333;50.958;6.770;2022-08-03T12:12:37;48.90;28.70
2647;DHT22;1333;50.958;6.770;2022-08-03T12:15:05;50.60;26.60
2647;DHT22;1333;50.958;6.770;2022-08-03T12:17:35;52.00;26.50
2647;DHT22;1333;50.958;6.770;2022-08-03T12:20:02;53.30;25.90
2647;DHT22;1333;50.958;6.770;2022-08-03T12:22:36;53.90;24.70
2647;DHT22;1333;50.958;6.770;2022-08-03T12:25:07;54.30;24.80
2647;DHT22;1333;50.958;6.770;2022-08-03T12:27:33;54.80;24.90
2647;DHT22;1333;50.958;6.770;2022-08-03T12:30:00;55.20;23.90
2647;DHT22;1333;50.958;6.770;2022-08-03T12:32:27;55.40;24.00
2647;DHT22;1333;50.958;6.770;2022-08-03T12:34:54;55.60;23.80
2647;DHT22;1333;50.958;6.770;2022-08-03T12:37:24;55.90;23.90
2647;DHT22;1333;50.958;6.770;2022-08-03T12:39:51;55.70;23.60
2647;DHT22;1333;50.958;6.770;2022-08-03T12:42:17;54.40;24.10
2647;DHT22;1333;50.958;6.770;2022-08-03T12:44:42;54.00;25.40
2647;DHT22;1333;50.958;6.770;2022-08-03T12:47:10;54.00;25.00
2647;DHT22;1333;50.958;6.770;2022-08-03T12:49:50;54.30;24.40
2647;DHT22;1333;50.958;6.770;2022-08-03T12:52:18;54.70;24.40
2647;DHT22;1333;50.958;6.770;2022-08-03T12:54:54;54.80;24.00
2647;DHT22;1333;50.958;6.770;2022-08-03T12:57:20;55.00;24.40
2647;DHT22;1333;50.958;6.770;2022-08-03T12:59:46;55.20;24.10
2647;DHT22;1333;50.958;6.770;2022-08-03T13:02:20;55.20;23.90
2647;DHT22;1333;50.958;6.770;2022-08-03T13:04:47;54.30;24.10
2647;DHT22;1333;50.958;6.770;2022-08-03T13:07:15;52.70;25.10
2647;DHT22;1333;50.958;6.770;2022-08-03T13:09:49;51.60;25.40
2647;DHT22;1333;50.958;6.770;2022-08-03T13:12:26;51.60;24.40
2647;DHT22;1333;50.958;6.770;2022-08-03T13:14:55;51.90;25.60
2647;DHT22;1333;50.958;6.770;2022-08-03T13:17:21;51.80;25.70
2647;DHT22;1333;50.958;6.770;2022-08-03T13:19:47;51.00;26.30
2647;DHT22;1333;50.958;6.770;2022-08-03T13:22:24;49.50;26.00
2647;DHT22;1333;50.958;6.770;2022-08-03T13:24:53;48.80;26.40
2647;DHT22;1333;50.958;6.770;2022-08-03T13:27:22;49.10;26.70
2647;DHT22;1333;50.958;6.770;2022-08-03T13:29:48;49.50;26.90
2647;DHT22;1333;50.958;6.770;2022-08-03T13:32:14;50.20;27.20
2647;DHT22;1333;50.958;6.770;2022-08-03T13:34:39;50.70;26.70
2647;DHT22;1333;50.958;6.770;2022-08-03T13:37:05;51.10;26.00
2647;DHT22;1333;50.958;6.770;2022-08-03T13:39:30;51.40;25.00
2647;DHT22;1333;50.958;6.770;2022-08-03T13:41:56;51.20;24.00
2647;DHT22;1333;50.958;6.770;2022-08-03T13:44:21;50.60;25.60
2647;DHT22;1333;50.958;6.770;2022-08-03T13:46:47;50.30;25.20
2647;DHT22;1333;50.958;6.770;2022-08-03T13:49:13;49.90;25.90
2647;DHT22;1333;50.958;6.770;2022-08-03T13:51:39;49.50;25.80
2647;DHT22;1333;50.958;6.770;2022-08-03T13:54:05;49.00;26.10
2647;DHT22;1333;50.958;6.770;2022-08-03T13:56:30;48.20;26.30
2647;DHT22;1333;50.958;6.770;2022-08-03T13:58:57;47.00;26.30
2647;DHT22;1333;50.958;6.770;2022-08-03T14:01:23;45.40;27.20
2647;DHT22;1333;50.958;6.770;2022-08-03T14:03:49;44.90;29.80
2647;DHT22;1333;50.958;6.770;2022-08-03T14:06:19;44.40;29.40
2647;DHT22;1333;50.958;6.770;2022-08-03T14:08:44;43.80;29.90
2647;DHT22;1333;50.958;6.770;2022-08-03T14:11:10;43.20;30.30
2647;DHT22;1333;50.958;6.770;2022-08-03T14:13:36;42.70;30.40
2647;DHT22;1333;50.958;6.770;2022-08-03T14:16:02;42.20;29.80
2647;DHT22;1333;50.958;6.770;2022-08-03T14:18:28;41.70;33.00
2647;DHT22;1333;50.958;6.770;2022-08-03T14:20:54;41.40;32.60
2647;DHT22;1333;50.958;6.770;2022-08-03T14:23:19;41.10;31.50
2647;DHT22;1333;50.958;6.770;2022-08-03T14:25:45;40.70;32.90
2647;DHT22;1333;50.958;6.770;2022-08-03T14:28:11;40.40;33.40
2647;DHT22;1333;50.958;6.770;2022-08-03T14:30:37;40.00;32.90
2647;DHT22;1333;50.958;6.770;2022-08-03T14:33:02;39.80;34.70
2647;DHT22;1333;50.958;6.770;2022-08-03T14:35:28;39.50;34.10
2647;DHT22;1333;50.958;6.770;2022-08-03T14:37:54;39.30;34.40
2647;DHT22;1333;50.958;6.770;2022-08-03T14:40:19;38.90;34.50
2647;DHT22;1333;50.958;6.770;2022-08-03T14:42:45;38.60;34.60
2647;DHT22;1333;50.958;6.770;2022-08-03T14:45:11;38.30;35.00
2647;DHT22;1333;50.958;6.770;2022-08-03T14:47:38;38.00;35.60
2647;DHT22;1333;50.958;6.770;2022-08-03T14:50:04;37.80;36.90
2647;DHT22;1333;50.958;6.770;2022-08-03T14:52:30;37.70;36.90
2647;DHT22;1333;50.958;6.770;2022-08-03T14:54:57;37.50;36.60
2647;DHT22;1333;50.958;6.770;2022-08-03T14:57:23;37.30;36.80
2647;DHT22;1333;50.958;6.770;2022-08-03T14:59:48;37.10;37.50
2647;DHT22;1333;50.958;6.770;2022-08-03T15:02:14;36.90;36.90
2647;DHT22;1333;50.958;6.770;2022-08-03T15:04:40;36.80;37.90
2647;DHT22;1333;50.958;6.770;2022-08-03T15:07:05;36.80;38.60
2647;DHT22;1333;50.958;6.770;2022-08-03T15:09:31;36.60;37.80
2647;DHT22;1333;50.958;6.770;2022-08-03T15:11:57;36.40;39.00
2647;DHT22;1333;50.958;6.770;2022-08-03T15:14:23;36.30;38.00
2647;DHT22;1333;50.958;6.770;2022-08-03T15:16:48;36.20;39.00
2647;DHT22;1333;50.958;6.770;2022-08-03T15:19:14;36.10;39.10
2647;DHT22;1333;50.958;6.770;2022-08-03T15:21:40;36.10;37.90
2647;DHT22;1333;50.958;6.770;2022-08-03T15:24:05;36.10;39.60
2647;DHT22;1333;50.958;6.770;2022-08-03T15:26:31;36.00;38.80
2647;DHT22;1333;50.958;6.770;2022-08-03T15:28:57;36.00;39.30
2647;DHT22;1333;50.958;6.770;2022-08-03T15:31:23;36.00;38.90
2647;DHT22;1333;50.958;6.770;2022-08-03T15:33:49;35.80;38.50
2647;DHT22;1333;50.958;6.770;2022-08-03T15:36:16;35.70;38.50
2647;DHT22;1333;50.958;6.770;2022-08-03T15:38:42;35.50;38.60
2647;DHT22;1333;50.958;6.770;2022-08-03T15:41:07;35.30;38.90
2647;DHT22;1333;50.958;6.770;2022-08-03T15:43:33;35.20;39.30
2647;DHT22;1333;50.958;6.770;2022-08-03T15:45:58;35.10;40.00
2647;DHT22;1333;50.958;6.770;2022-08-03T15:48:24;34.80;39.70
2647;DHT22;1333;50.958;6.770;2022-08-03T15:50:50;34.80;40.70
2647;DHT22;1333;50.958;6.770;2022-08-03T15:53:16;34.80;41.80
2647;DHT22;1333;50.958;6.770;2022-08-03T15:55:42;34.80;42.30
2647;DHT22;1333;50.958;6.770;2022-08-03T15:58:08;34.70;42.00
2647;DHT22;1333;50.958;6.770;2022-08-03T16:00:34;34.70;42.50
2647;DHT22;1333;50.958;6.770;2022-08-03T16:03:00;34.80;40.90
2647;DHT22;1333;50.958;6.770;2022-08-03T16:05:25;34.80;40.00
2647;DHT22;1333;50.958;6.770;2022-08-03T16:07:51;34.90;41.20
2647;DHT22;1333;50.958;6.770;2022-08-03T16:10:19;34.90;41.20
2647;DHT22;1333;50.958;6.770;2022-08-03T16:12:46;35.00;42.10
2647;DHT22;1333;50.958;6.770;2022-08-03T16:15:12;35.00;39.80
2647;DHT22;1333;50.958;6.770;2022-08-03T16:17:39;35.10;41.30
2647;DHT22;1333;50.958;6.770;2022-08-03T16:20:06;35.20;42.30
2647;DHT22;1333;50.958;6.770;2022-08-03T16:22:33;35.20;42.00
2647;DHT22;1333;50.958;6.770;2022-08-03T16:24:59;35.10;41.20
2647;DHT22;1333;50.958;6.770;2022-08-03T16:27:25;35.20;41.50
2647;DHT22;1333;50.958;6.770;2022-08-03T16:29:51;35.20;42.20